SWR6EB LEPA-LSZH
Flight info
| Callsign | SWR6EB |
|---|---|
| Flight time | 1h 31m |
| Altitude | 36000 |
| Route | MERO5A MEROS LAPIT CHELY LUMAS MAXIR LUSOL BODRU OKTET IRMAR KINES VANAS MOBLO LAMUR KORED N871 BERSU BERS2G |
| Aircraft | A21N/M-L/5000 |
Departure
| Time | 2026-04-26 12:11 |
|---|---|
| Airport | Palma de Mallorca Airport (LEPA) |
Arrival
| Time | 2026-04-26 13:43 |
|---|---|
| Airport | Zürich Airport (LSZH) |
| Time | Latitude | Longitude | Altitude | Speed | Heading |
|---|---|---|---|---|---|
| 2026-04-26 11:55 | 39.54903 | 2.72410 | 32 ft | 0 kts | 157° |
| 2026-04-26 12:03 | 39.54919 | 2.72401 | 30 ft | 3 kts | 157° |
| 2026-04-26 12:04 | 39.54936 | 2.72391 | 29 ft | 3 kts | 157° |
| 2026-04-26 12:04 | 39.54953 | 2.72381 | 31 ft | 3 kts | 131° |
| 2026-04-26 12:04 | 39.54959 | 2.72366 | 31 ft | 0 kts | 92° |
| 2026-04-26 12:06 | 39.54972 | 2.72439 | 32 ft | 18 kts | 64° |
| 2026-04-26 12:06 | 39.55064 | 2.72638 | 57 ft | 33 kts | 60° |
| 2026-04-26 12:06 | 39.55218 | 2.72973 | 34 ft | 65 kts | 58° |
| 2026-04-26 12:07 | 39.55427 | 2.73409 | 36 ft | 37 kts | 58° |
| 2026-04-26 12:07 | 39.55526 | 2.73570 | 37 ft | 11 kts | 1° |
| 2026-04-26 12:07 | 39.55623 | 2.73508 | 37 ft | 19 kts | 355° |
| 2026-04-26 12:07 | 39.55695 | 2.73592 | 36 ft | 20 kts | 61° |
| 2026-04-26 12:08 | 39.55819 | 2.73855 | 39 ft | 42 kts | 54° |
| 2026-04-26 12:08 | 39.55971 | 2.74167 | 41 ft | 29 kts | 58° |
| 2026-04-26 12:08 | 39.56088 | 2.74291 | 42 ft | 10 kts | 25° |
| 2026-04-26 12:08 | 39.56145 | 2.74344 | 43 ft | 2 kts | 39° |
| 2026-04-26 12:09 | 39.56218 | 2.74357 | 43 ft | 18 kts | 331° |
| 2026-04-26 12:09 | 39.56232 | 2.74286 | 41 ft | 10 kts | 248° |
| 2026-04-26 12:09 | 39.56222 | 2.74249 | 42 ft | 0 kts | 242° |
| 2026-04-26 12:11 | 39.56210 | 2.74222 | 41 ft | 23 kts | 241° |
| 2026-04-26 12:11 | 39.55986 | 2.73749 | 38 ft | 101 kts | 238° |
| 2026-04-26 12:11 | 39.55474 | 2.72681 | 100 ft | 166 kts | 238° |
| 2026-04-26 12:11 | 39.54875 | 2.71392 | 894 ft | 161 kts | 237° |
| 2026-04-26 12:12 | 39.54237 | 2.70106 | 1572 ft | 187 kts | 234° |
| 2026-04-26 12:12 | 39.53457 | 2.68583 | 1853 ft | 218 kts | 234° |
| 2026-04-26 12:12 | 39.52577 | 2.66841 | 2312 ft | 239 kts | 236° |
| 2026-04-26 12:12 | 39.51957 | 2.65599 | 2549 ft | 257 kts | 236° |
| 2026-04-26 12:13 | 39.50563 | 2.62784 | 2929 ft | 296 kts | 236° |
| 2026-04-26 12:13 | 39.49087 | 2.60811 | 3226 ft | 317 kts | 212° |
| 2026-04-26 12:13 | 39.47111 | 2.59353 | 3510 ft | 337 kts | 206° |
| 2026-04-26 12:13 | 39.44978 | 2.57911 | 3806 ft | 352 kts | 206° |
| 2026-04-26 12:14 | 39.42679 | 2.56774 | 4296 ft | 355 kts | 187° |
| 2026-04-26 12:14 | 39.40245 | 2.56912 | 5030 ft | 350 kts | 163° |
| 2026-04-26 12:14 | 39.38105 | 2.58318 | 5807 ft | 346 kts | 139° |
| 2026-04-26 12:14 | 39.36566 | 2.60630 | 6622 ft | 344 kts | 124° |
| 2026-04-26 12:15 | 39.35126 | 2.63150 | 7365 ft | 356 kts | 127° |
| 2026-04-26 12:15 | 39.33505 | 2.65646 | 8137 ft | 366 kts | 131° |
| 2026-04-26 12:15 | 39.31764 | 2.68071 | 9089 ft | 372 kts | 133° |
| 2026-04-26 12:15 | 39.29926 | 2.70492 | 9864 ft | 380 kts | 134° |
| 2026-04-26 12:16 | 39.27972 | 2.72824 | 10729 ft | 382 kts | 135° |
| 2026-04-26 12:16 | 39.26440 | 2.75535 | 11689 ft | 380 kts | 114° |
| 2026-04-26 12:16 | 39.25795 | 2.78814 | 12799 ft | 378 kts | 95° |
| 2026-04-26 12:16 | 39.25701 | 2.82204 | 14025 ft | 376 kts | 88° |
| 2026-04-26 12:17 | 39.26050 | 2.85536 | 15151 ft | 374 kts | 76° |
| 2026-04-26 12:17 | 39.27027 | 2.88641 | 16334 ft | 373 kts | 60° |
| 2026-04-26 12:17 | 39.28668 | 2.91226 | 17550 ft | 373 kts | 43° |
| 2026-04-26 12:17 | 39.30737 | 2.93250 | 18706 ft | 374 kts | 35° |
| 2026-04-26 12:18 | 39.32972 | 2.94964 | 19702 ft | 373 kts | 30° |
| 2026-04-26 12:18 | 39.35281 | 2.96512 | 20709 ft | 372 kts | 28° |
| 2026-04-26 12:18 | 39.37564 | 2.97969 | 21700 ft | 371 kts | 27° |
| 2026-04-26 12:18 | 39.39887 | 2.99447 | 22629 ft | 374 kts | 27° |
| 2026-04-26 12:19 | 39.42266 | 3.00993 | 23053 ft | 390 kts | 28° |
| 2026-04-26 12:19 | 39.44724 | 3.02631 | 23366 ft | 406 kts | 28° |
| 2026-04-26 12:19 | 39.47279 | 3.04368 | 23667 ft | 421 kts | 29° |
| 2026-04-26 12:19 | 39.49909 | 3.06176 | 23906 ft | 436 kts | 28° |
| 2026-04-26 12:20 | 39.52630 | 3.08058 | 24138 ft | 449 kts | 28° |
| 2026-04-26 12:20 | 39.55429 | 3.10001 | 24416 ft | 459 kts | 28° |
| 2026-04-26 12:20 | 39.58223 | 3.11945 | 24915 ft | 462 kts | 28° |
| 2026-04-26 12:20 | 39.61065 | 3.13921 | 25541 ft | 463 kts | 29° |
| 2026-04-26 12:21 | 39.63898 | 3.15889 | 26216 ft | 462 kts | 28° |
| 2026-04-26 12:21 | 39.66732 | 3.17857 | 26890 ft | 461 kts | 28° |
| 2026-04-26 12:21 | 39.69559 | 3.19822 | 27554 ft | 460 kts | 29° |
| 2026-04-26 12:21 | 39.72383 | 3.21785 | 28193 ft | 459 kts | 28° |
| 2026-04-26 12:22 | 39.75211 | 3.23752 | 28861 ft | 458 kts | 29° |
| 2026-04-26 12:22 | 39.77981 | 3.25683 | 29596 ft | 454 kts | 28° |
| 2026-04-26 12:22 | 39.80758 | 3.27621 | 30274 ft | 453 kts | 28° |
| 2026-04-26 12:22 | 39.82645 | 3.28937 | 30441 ft | 458 kts | 28° |
| 2026-04-26 12:23 | 39.86409 | 3.31567 | 30714 ft | 466 kts | 28° |
| 2026-04-26 12:23 | 39.89276 | 3.33574 | 31118 ft | 468 kts | 28° |
| 2026-04-26 12:23 | 39.92148 | 3.35588 | 31584 ft | 467 kts | 28° |
| 2026-04-26 12:23 | 39.94970 | 3.37568 | 32066 ft | 466 kts | 28° |
| 2026-04-26 12:24 | 39.97826 | 3.39572 | 32548 ft | 465 kts | 28° |
| 2026-04-26 12:24 | 40.00674 | 3.41572 | 33040 ft | 463 kts | 28° |
| 2026-04-26 12:24 | 40.03510 | 3.43564 | 33513 ft | 462 kts | 28° |
| 2026-04-26 12:25 | 40.09167 | 3.47547 | 34387 ft | 461 kts | 28° |
| 2026-04-26 12:25 | 40.11988 | 3.49538 | 34739 ft | 461 kts | 28° |
| 2026-04-26 12:25 | 40.14805 | 3.51526 | 35059 ft | 461 kts | 28° |
| 2026-04-26 12:25 | 40.17630 | 3.53522 | 35386 ft | 461 kts | 28° |
| 2026-04-26 12:26 | 40.20448 | 3.55515 | 35708 ft | 461 kts | 28° |
| 2026-04-26 12:26 | 40.23265 | 3.57511 | 36051 ft | 460 kts | 28° |
| 2026-04-26 12:26 | 40.26083 | 3.59509 | 36369 ft | 460 kts | 28° |
| 2026-04-26 12:26 | 40.28901 | 3.61512 | 36669 ft | 461 kts | 28° |
| 2026-04-26 12:27 | 40.31688 | 3.63492 | 36957 ft | 461 kts | 28° |
| 2026-04-26 12:27 | 40.34506 | 3.65495 | 37251 ft | 461 kts | 28° |
| 2026-04-26 12:27 | 40.37332 | 3.67504 | 37541 ft | 461 kts | 27° |
| 2026-04-26 12:27 | 40.40155 | 3.69513 | 37827 ft | 461 kts | 27° |
| 2026-04-26 12:28 | 40.42977 | 3.71524 | 38110 ft | 462 kts | 27° |
| 2026-04-26 12:28 | 40.45809 | 3.73545 | 38180 ft | 461 kts | 27° |
| 2026-04-26 12:28 | 40.50491 | 3.76893 | 38171 ft | 461 kts | 27° |
| 2026-04-26 12:29 | 40.56126 | 3.80923 | 38174 ft | 461 kts | 27° |
| 2026-04-26 12:30 | 40.64589 | 3.86990 | 38171 ft | 461 kts | 27° |
| 2026-04-26 12:30 | 40.70224 | 3.91043 | 38165 ft | 462 kts | 27° |
| 2026-04-26 12:31 | 40.78680 | 3.97136 | 38169 ft | 462 kts | 27° |
| 2026-04-26 12:31 | 40.84322 | 4.01216 | 38181 ft | 462 kts | 27° |
| 2026-04-26 12:32 | 40.89954 | 4.05291 | 38172 ft | 461 kts | 27° |
| 2026-04-26 12:33 | 40.98364 | 4.11390 | 38166 ft | 461 kts | 27° |
| 2026-04-26 12:33 | 41.03987 | 4.15481 | 38170 ft | 461 kts | 27° |
| 2026-04-26 12:34 | 41.09614 | 4.19582 | 38167 ft | 461 kts | 27° |
| 2026-04-26 12:34 | 41.15228 | 4.23683 | 38158 ft | 461 kts | 27° |
| 2026-04-26 12:35 | 41.20859 | 4.27802 | 38171 ft | 461 kts | 27° |
| 2026-04-26 12:35 | 41.26485 | 4.31927 | 38169 ft | 462 kts | 27° |
| 2026-04-26 12:36 | 41.32100 | 4.36054 | 38159 ft | 461 kts | 27° |
| 2026-04-26 12:36 | 41.37712 | 4.40183 | 38166 ft | 461 kts | 27° |
| 2026-04-26 12:37 | 41.43320 | 4.44318 | 38152 ft | 461 kts | 27° |
| 2026-04-26 12:37 | 41.48892 | 4.48439 | 38159 ft | 461 kts | 27° |
| 2026-04-26 12:38 | 41.54496 | 4.52592 | 38160 ft | 460 kts | 27° |
| 2026-04-26 12:38 | 41.60101 | 4.56750 | 38156 ft | 460 kts | 27° |
| 2026-04-26 12:39 | 41.65697 | 4.60909 | 38156 ft | 460 kts | 27° |
| 2026-04-26 12:39 | 41.71298 | 4.65079 | 38156 ft | 460 kts | 27° |
| 2026-04-26 12:40 | 41.76866 | 4.69359 | 38148 ft | 461 kts | 29° |
| 2026-04-26 12:40 | 41.82326 | 4.73757 | 38149 ft | 461 kts | 29° |
| 2026-04-26 12:41 | 41.87819 | 4.78212 | 38144 ft | 461 kts | 29° |
| 2026-04-26 12:41 | 41.93318 | 4.82661 | 38145 ft | 461 kts | 29° |
| 2026-04-26 12:42 | 41.98811 | 4.87103 | 38141 ft | 461 kts | 29° |
| 2026-04-26 12:42 | 42.04310 | 4.91555 | 38142 ft | 461 kts | 29° |
| 2026-04-26 12:43 | 42.09770 | 4.95981 | 38152 ft | 461 kts | 29° |
| 2026-04-26 12:43 | 42.15265 | 5.00445 | 38141 ft | 461 kts | 29° |
| 2026-04-26 12:44 | 42.20758 | 5.04917 | 38141 ft | 461 kts | 29° |
| 2026-04-26 12:44 | 42.26247 | 5.09400 | 38139 ft | 461 kts | 29° |
| 2026-04-26 12:45 | 42.31744 | 5.13897 | 38139 ft | 461 kts | 29° |
| 2026-04-26 12:45 | 42.37233 | 5.18392 | 38138 ft | 461 kts | 29° |
| 2026-04-26 12:46 | 42.42723 | 5.22899 | 38134 ft | 461 kts | 29° |
| 2026-04-26 12:46 | 42.48178 | 5.27392 | 38135 ft | 462 kts | 29° |
| 2026-04-26 12:47 | 42.53668 | 5.31921 | 38133 ft | 461 kts | 29° |
| 2026-04-26 12:47 | 42.59159 | 5.36459 | 38133 ft | 461 kts | 29° |
| 2026-04-26 12:48 | 42.64645 | 5.41000 | 38135 ft | 461 kts | 29° |
| 2026-04-26 12:48 | 42.70095 | 5.45523 | 38135 ft | 461 kts | 29° |
| 2026-04-26 12:49 | 42.75584 | 5.50084 | 38135 ft | 461 kts | 29° |
| 2026-04-26 12:49 | 42.81065 | 5.54648 | 38136 ft | 461 kts | 29° |
| 2026-04-26 12:50 | 42.86547 | 5.59226 | 38134 ft | 461 kts | 29° |
| 2026-04-26 12:50 | 42.92030 | 5.63812 | 38133 ft | 461 kts | 29° |
| 2026-04-26 12:51 | 42.97465 | 5.68371 | 38133 ft | 461 kts | 29° |
| 2026-04-26 12:51 | 43.02937 | 5.72969 | 38131 ft | 461 kts | 29° |
| 2026-04-26 12:52 | 43.08401 | 5.77569 | 38138 ft | 461 kts | 29° |
| 2026-04-26 12:52 | 43.13866 | 5.82181 | 38135 ft | 461 kts | 29° |
| 2026-04-26 12:53 | 43.19327 | 5.86798 | 38131 ft | 461 kts | 29° |
| 2026-04-26 12:53 | 43.24748 | 5.91391 | 38130 ft | 461 kts | 29° |
| 2026-04-26 12:54 | 43.30204 | 5.96027 | 38137 ft | 461 kts | 29° |
| 2026-04-26 12:54 | 43.35666 | 6.00679 | 38139 ft | 461 kts | 29° |
| 2026-04-26 12:55 | 43.41336 | 6.04654 | 38148 ft | 454 kts | 11° |
| 2026-04-26 12:55 | 43.47574 | 6.05608 | 38141 ft | 451 kts | 359° |
| 2026-04-26 12:56 | 43.53851 | 6.05766 | 38132 ft | 452 kts | 359° |
| 2026-04-26 12:56 | 43.60140 | 6.06111 | 38118 ft | 452 kts | 0° |
| 2026-04-26 12:57 | 43.66389 | 6.06671 | 38119 ft | 453 kts | 1° |
| 2026-04-26 12:57 | 43.72684 | 6.07318 | 38115 ft | 453 kts | 1° |
| 2026-04-26 12:58 | 43.78917 | 6.08640 | 38118 ft | 457 kts | 17° |
| 2026-04-26 12:58 | 43.81867 | 6.10307 | 38120 ft | 459 kts | 22° |
| 2026-04-26 12:58 | 43.87551 | 6.14401 | 38125 ft | 460 kts | 26° |
| 2026-04-26 12:59 | 43.93205 | 6.18595 | 38114 ft | 460 kts | 25° |
| 2026-04-26 12:59 | 43.98907 | 6.22628 | 38113 ft | 460 kts | 24° |
| 2026-04-26 13:00 | 44.04608 | 6.26549 | 38117 ft | 460 kts | 23° |
| 2026-04-26 13:00 | 44.10353 | 6.30480 | 38116 ft | 460 kts | 24° |
| 2026-04-26 13:01 | 44.16104 | 6.34428 | 38111 ft | 460 kts | 24° |
| 2026-04-26 13:01 | 44.21846 | 6.38386 | 38107 ft | 460 kts | 24° |
| 2026-04-26 13:02 | 44.27596 | 6.42361 | 38115 ft | 461 kts | 24° |
| 2026-04-26 13:02 | 44.33352 | 6.46347 | 38111 ft | 461 kts | 24° |
| 2026-04-26 13:03 | 44.39062 | 6.50312 | 38114 ft | 461 kts | 24° |
| 2026-04-26 13:03 | 44.44815 | 6.54313 | 38128 ft | 461 kts | 24° |
| 2026-04-26 13:04 | 44.50560 | 6.58317 | 38127 ft | 461 kts | 24° |
| 2026-04-26 13:04 | 44.56312 | 6.62337 | 38128 ft | 461 kts | 24° |
| 2026-04-26 13:05 | 44.62055 | 6.66355 | 38125 ft | 461 kts | 24° |
| 2026-04-26 13:05 | 44.67800 | 6.70389 | 38135 ft | 461 kts | 24° |
| 2026-04-26 13:06 | 44.73544 | 6.74432 | 38130 ft | 462 kts | 24° |
| 2026-04-26 13:06 | 44.79271 | 6.78418 | 38129 ft | 460 kts | 19° |
| 2026-04-26 13:07 | 44.82339 | 6.79517 | 38137 ft | 452 kts | 3° |
| 2026-04-26 13:07 | 44.85472 | 6.79638 | 38129 ft | 449 kts | 354° |
| 2026-04-26 13:07 | 44.91695 | 6.78824 | 38136 ft | 449 kts | 351° |
| 2026-04-26 13:08 | 44.97925 | 6.77960 | 38146 ft | 450 kts | 352° |
| 2026-04-26 13:08 | 45.04176 | 6.77383 | 38152 ft | 451 kts | 354° |
| 2026-04-26 13:09 | 45.10446 | 6.76965 | 38153 ft | 451 kts | 354° |
| 2026-04-26 13:09 | 45.16719 | 6.76567 | 38137 ft | 451 kts | 354° |
| 2026-04-26 13:10 | 45.22944 | 6.76159 | 38149 ft | 451 kts | 354° |
| 2026-04-26 13:10 | 45.29216 | 6.75741 | 38157 ft | 451 kts | 354° |
| 2026-04-26 13:11 | 45.35498 | 6.75320 | 38153 ft | 451 kts | 354° |
| 2026-04-26 13:11 | 45.41767 | 6.74899 | 38153 ft | 451 kts | 354° |
| 2026-04-26 13:12 | 45.48036 | 6.74474 | 38156 ft | 451 kts | 354° |
| 2026-04-26 13:12 | 45.54282 | 6.74048 | 38136 ft | 451 kts | 354° |
| 2026-04-26 13:13 | 45.60553 | 6.73621 | 38152 ft | 450 kts | 354° |
| 2026-04-26 13:13 | 45.66820 | 6.73196 | 38146 ft | 450 kts | 354° |
| 2026-04-26 13:14 | 45.73076 | 6.72767 | 38141 ft | 450 kts | 354° |
| 2026-04-26 13:14 | 45.79291 | 6.72348 | 38146 ft | 450 kts | 355° |
| 2026-04-26 13:15 | 45.82409 | 6.72766 | 38148 ft | 454 kts | 11° |
| 2026-04-26 13:15 | 45.85416 | 6.74196 | 38150 ft | 457 kts | 20° |
| 2026-04-26 13:15 | 45.90199 | 6.77490 | 38145 ft | 460 kts | 25° |
| 2026-04-26 13:16 | 45.96853 | 6.82392 | 38162 ft | 460 kts | 24° |
| 2026-04-26 13:16 | 46.01637 | 6.85704 | 38149 ft | 459 kts | 22° |
| 2026-04-26 13:17 | 46.10362 | 6.91467 | 38154 ft | 459 kts | 21° |
| 2026-04-26 13:18 | 46.19086 | 6.97192 | 38151 ft | 459 kts | 22° |
| 2026-04-26 13:19 | 46.27771 | 7.02933 | 38143 ft | 459 kts | 22° |
| 2026-04-26 13:19 | 46.33585 | 7.06791 | 38142 ft | 460 kts | 22° |
| 2026-04-26 13:20 | 46.39394 | 7.10657 | 38141 ft | 460 kts | 22° |
| 2026-04-26 13:20 | 46.45205 | 7.14531 | 38154 ft | 459 kts | 22° |
| 2026-04-26 13:21 | 46.51014 | 7.18411 | 38160 ft | 459 kts | 22° |
| 2026-04-26 13:21 | 46.56820 | 7.22299 | 38160 ft | 459 kts | 22° |
| 2026-04-26 13:22 | 46.62628 | 7.26200 | 38165 ft | 460 kts | 22° |
| 2026-04-26 13:22 | 46.68388 | 7.30075 | 38160 ft | 459 kts | 22° |
| 2026-04-26 13:23 | 46.74193 | 7.33992 | 38165 ft | 460 kts | 22° |
| 2026-04-26 13:23 | 46.80000 | 7.37918 | 38157 ft | 460 kts | 22° |
| 2026-04-26 13:24 | 46.85686 | 7.42213 | 38148 ft | 464 kts | 36° |
| 2026-04-26 13:24 | 46.90008 | 7.49048 | 38164 ft | 444 kts | 51° |
| 2026-04-26 13:24 | 46.91777 | 7.52635 | 38161 ft | 427 kts | 52° |
| 2026-04-26 13:25 | 46.93458 | 7.56131 | 38008 ft | 413 kts | 52° |
| 2026-04-26 13:25 | 46.95111 | 7.59516 | 37444 ft | 405 kts | 52° |
| 2026-04-26 13:25 | 46.96793 | 7.62853 | 36436 ft | 408 kts | 51° |
| 2026-04-26 13:25 | 46.98528 | 7.66180 | 35217 ft | 414 kts | 50° |
| 2026-04-26 13:26 | 47.00292 | 7.69482 | 34023 ft | 419 kts | 50° |
| 2026-04-26 13:26 | 47.02109 | 7.72841 | 32704 ft | 422 kts | 49° |
| 2026-04-26 13:26 | 47.03939 | 7.76215 | 31439 ft | 423 kts | 50° |
| 2026-04-26 13:26 | 47.05772 | 7.79601 | 30241 ft | 423 kts | 50° |
| 2026-04-26 13:27 | 47.07594 | 7.82987 | 28841 ft | 422 kts | 50° |
| 2026-04-26 13:27 | 47.09404 | 7.86362 | 27586 ft | 419 kts | 50° |
| 2026-04-26 13:27 | 47.11197 | 7.89702 | 26372 ft | 414 kts | 50° |
| 2026-04-26 13:27 | 47.12975 | 7.92983 | 25294 ft | 408 kts | 49° |
| 2026-04-26 13:28 | 47.14530 | 7.96442 | 24199 ft | 405 kts | 63° |
| 2026-04-26 13:28 | 47.15691 | 8.00183 | 23027 ft | 399 kts | 64° |
| 2026-04-26 13:28 | 47.16821 | 8.03876 | 21812 ft | 393 kts | 64° |
| 2026-04-26 13:28 | 47.18000 | 8.07456 | 20645 ft | 385 kts | 58° |
| 2026-04-26 13:29 | 47.19532 | 8.10577 | 19550 ft | 376 kts | 45° |
| 2026-04-26 13:29 | 47.20823 | 8.12320 | 18812 ft | 369 kts | 34° |
| 2026-04-26 13:29 | 47.23797 | 8.14478 | 17245 ft | 355 kts | 11° |
| 2026-04-26 13:29 | 47.26204 | 8.14914 | 16083 ft | 344 kts | 353° |
| 2026-04-26 13:30 | 47.28505 | 8.14181 | 14954 ft | 335 kts | 341° |
| 2026-04-26 13:30 | 47.30713 | 8.13112 | 13848 ft | 330 kts | 340° |
| 2026-04-26 13:30 | 47.32866 | 8.12054 | 12907 ft | 320 kts | 340° |
| 2026-04-26 13:30 | 47.34940 | 8.11070 | 12383 ft | 307 kts | 340° |
| 2026-04-26 13:31 | 47.36980 | 8.10126 | 12210 ft | 308 kts | 341° |
| 2026-04-26 13:31 | 47.39027 | 8.09194 | 12187 ft | 308 kts | 342° |
| 2026-04-26 13:31 | 47.41073 | 8.08272 | 12188 ft | 308 kts | 342° |
| 2026-04-26 13:31 | 47.43104 | 8.07368 | 11951 ft | 299 kts | 341° |
| 2026-04-26 13:32 | 47.45072 | 8.06510 | 11088 ft | 294 kts | 342° |
| 2026-04-26 13:32 | 47.47021 | 8.05648 | 10046 ft | 298 kts | 342° |
| 2026-04-26 13:32 | 47.49008 | 8.04744 | 8958 ft | 297 kts | 342° |
| 2026-04-26 13:32 | 47.50968 | 8.03822 | 8106 ft | 290 kts | 342° |
| 2026-04-26 13:33 | 47.52811 | 8.02928 | 7761 ft | 268 kts | 342° |
| 2026-04-26 13:33 | 47.54506 | 8.02081 | 7515 ft | 246 kts | 342° |
| 2026-04-26 13:33 | 47.56063 | 8.01288 | 7312 ft | 228 kts | 342° |
| 2026-04-26 13:33 | 47.57531 | 8.00546 | 6986 ft | 219 kts | 345° |
| 2026-04-26 13:34 | 47.59002 | 8.00435 | 6507 ft | 212 kts | 15° |
| 2026-04-26 13:34 | 47.60222 | 8.01558 | 6099 ft | 204 kts | 52° |
| 2026-04-26 13:34 | 47.60824 | 8.03352 | 6012 ft | 191 kts | 70° |
| 2026-04-26 13:34 | 47.61089 | 8.04593 | 5989 ft | 190 kts | 72° |
| 2026-04-26 13:35 | 47.61579 | 8.07111 | 5993 ft | 191 kts | 73° |
| 2026-04-26 13:35 | 47.61941 | 8.08999 | 5978 ft | 190 kts | 73° |
| 2026-04-26 13:35 | 47.62295 | 8.10868 | 5988 ft | 190 kts | 73° |
| 2026-04-26 13:35 | 47.62655 | 8.12753 | 5988 ft | 190 kts | 73° |
| 2026-04-26 13:36 | 47.63022 | 8.14637 | 5976 ft | 191 kts | 73° |
| 2026-04-26 13:36 | 47.63390 | 8.16534 | 5987 ft | 191 kts | 73° |
| 2026-04-26 13:36 | 47.63528 | 8.18472 | 5971 ft | 191 kts | 95° |
| 2026-04-26 13:36 | 47.63258 | 8.20404 | 5980 ft | 192 kts | 102° |
| 2026-04-26 13:37 | 47.62916 | 8.22323 | 5978 ft | 193 kts | 103° |
| 2026-04-26 13:37 | 47.62569 | 8.24242 | 5996 ft | 193 kts | 103° |
| 2026-04-26 13:37 | 47.62217 | 8.26158 | 5959 ft | 191 kts | 104° |
| 2026-04-26 13:37 | 47.61867 | 8.28057 | 5581 ft | 191 kts | 103° |
| 2026-04-26 13:38 | 47.61514 | 8.29953 | 5187 ft | 191 kts | 103° |
| 2026-04-26 13:38 | 47.61167 | 8.31859 | 4740 ft | 192 kts | 103° |
| 2026-04-26 13:38 | 47.60721 | 8.33725 | 4284 ft | 194 kts | 115° |
| 2026-04-26 13:38 | 47.60065 | 8.35447 | 4014 ft | 190 kts | 119° |
| 2026-04-26 13:39 | 47.59395 | 8.37038 | 3973 ft | 176 kts | 121° |
| 2026-04-26 13:39 | 47.58743 | 8.38513 | 3930 ft | 167 kts | 121° |
| 2026-04-26 13:39 | 47.58090 | 8.39915 | 3546 ft | 165 kts | 124° |
| 2026-04-26 13:39 | 47.57298 | 8.41175 | 3232 ft | 166 kts | 130° |
| 2026-04-26 13:40 | 47.56468 | 8.42337 | 3050 ft | 165 kts | 133° |
| 2026-04-26 13:40 | 47.55604 | 8.43514 | 2755 ft | 170 kts | 132° |
| 2026-04-26 13:40 | 47.54734 | 8.44700 | 2579 ft | 167 kts | 133° |
| 2026-04-26 13:40 | 47.53884 | 8.45863 | 2604 ft | 167 kts | 134° |
| 2026-04-26 13:41 | 47.53036 | 8.47017 | 2544 ft | 169 kts | 134° |
| 2026-04-26 13:41 | 47.52160 | 8.48188 | 2348 ft | 167 kts | 134° |
| 2026-04-26 13:41 | 47.51318 | 8.49328 | 2170 ft | 165 kts | 132° |
| 2026-04-26 13:41 | 47.50468 | 8.50511 | 2004 ft | 169 kts | 134° |
| 2026-04-26 13:42 | 47.49591 | 8.51718 | 1814 ft | 174 kts | 133° |
| 2026-04-26 13:42 | 47.48717 | 8.52907 | 1611 ft | 170 kts | 132° |
| 2026-04-26 13:42 | 47.47858 | 8.54080 | 1413 ft | 160 kts | 134° |
| 2026-04-26 13:42 | 47.47183 | 8.55016 | 1399 ft | 82 kts | 138° |
| 2026-04-26 13:43 | 47.46800 | 8.55534 | 1411 ft | 65 kts | 136° |
| 2026-04-26 13:43 | 47.46500 | 8.55709 | 1409 ft | 34 kts | 165° |
| 2026-04-26 13:43 | 47.46443 | 8.55730 | 1404 ft | 0 kts | 166° |
| 2026-04-26 13:44 | 47.46410 | 8.55744 | 1408 ft | 17 kts | 158° |
| 2026-04-26 13:44 | 47.46344 | 8.55812 | 1407 ft | 14 kts | 137° |
| 2026-04-26 13:45 | 47.46193 | 8.55995 | 1406 ft | 37 kts | 158° |
| 2026-04-26 13:45 | 47.45981 | 8.55971 | 1405 ft | 27 kts | 189° |
| 2026-04-26 13:45 | 47.45837 | 8.55902 | 1403 ft | 0 kts | 200° |
| 2026-04-26 13:46 | 47.45790 | 8.55881 | 1406 ft | 20 kts | 191° |
| 2026-04-26 13:46 | 47.45658 | 8.55836 | 1409 ft | 18 kts | 235° |
| 2026-04-26 13:46 | 47.45660 | 8.55651 | 1402 ft | 19 kts | 292° |
| 2026-04-26 13:47 | 47.45669 | 8.55473 | 1400 ft | 21 kts | 273° |
| 2026-04-26 13:47 | 47.45634 | 8.55343 | 1402 ft | 6 kts | 175° |
| 2026-04-26 13:47 | 47.45522 | 8.55409 | 1403 ft | 26 kts | 156° |
| 2026-04-26 13:47 | 47.45351 | 8.55526 | 1402 ft | 28 kts | 154° |
| 2026-04-26 13:48 | 47.45270 | 8.55652 | 1402 ft | 15 kts | 98° |
| 2026-04-26 13:48 | 47.45257 | 8.55827 | 1409 ft | 18 kts | 96° |
| 2026-04-26 13:48 | 47.45253 | 8.55892 | 1406 ft | 2 kts | 94° |
| 2026-04-26 13:48 | 47.45252 | 8.55911 | 1404 ft | 1 kts | 95° |
| 2026-04-26 13:49 | 47.45252 | 8.55920 | 1403 ft | 0 kts | 95° |
| 2026-04-26 13:49 | 47.45248 | 8.55972 | 1400 ft | 9 kts | 91° |
| 2026-04-26 13:49 | 47.45268 | 8.56003 | 1403 ft | 8 kts | 25° |
| 2026-04-26 13:50 | 47.45310 | 8.56014 | 1400 ft | 0 kts | 5° |